Time;durP1;ratioP1;P1;durP2;ratioP2;P2;SDS_P1;SDS_P2;PMS_P1;PMS_P2;Temp;Humidity;BMP_temperature;BMP_pressure;BME280_temperature;BME280_humidity;BME280_pressure;Samples;Min_cycle;Max_cycle;Signal;HPM_P1;HPM_P2
2023/04/25 00:02:03;;;;;;;29.55;20.48;;;;;;;16.90;51.55;92661.81;4927902;29;20043;-88
2023/04/25 00:04:29;;;;;;;32.65;20.73;;;;;;;16.88;51.58;92667.09;4928274;29;20043;-89
2023/04/25 00:06:55;;;;;;;29.35;19.83;;;;;;;16.89;51.78;92671.25;4895418;29;20268;-89
2023/04/25 00:09:22;;;;;;;26.90;18.65;;;;;;;16.89;51.84;92674.00;4913571;29;20053;-89
2023/04/25 00:11:47;;;;;;;28.02;19.25;;;;;;;16.84;51.95;92674.09;4928798;29;20067;-89
2023/04/25 00:14:13;;;;;;;29.77;19.25;;;;;;;16.82;51.97;92676.59;4934610;28;20499;-89
2023/04/25 00:16:38;;;;;;;28.25;18.60;;;;;;;16.86;51.58;92680.50;4933676;29;20289;-88
2023/04/25 00:19:04;;;;;;;30.02;19.40;;;;;;;16.87;52.11;92676.53;4932465;29;20060;-88
2023/04/25 00:21:31;;;;;;;27.27;18.95;;;;;;;16.84;52.06;92674.09;4898620;29;20130;-89
2023/04/25 00:23:56;;;;;;;32.40;20.52;;;;;;;16.82;52.49;92685.53;4930328;28;20526;-89
2023/04/25 00:26:22;;;;;;;29.98;18.50;;;;;;;16.86;51.78;92680.50;4926955;28;20060;-89
2023/04/25 00:28:47;;;;;;;28.77;18.52;;;;;;;16.84;52.34;92680.28;4895906;29;20041;-89
2023/04/25 00:31:13;;;;;;;30.73;19.10;;;;;;;16.86;52.26;92679.78;4911256;29;20061;-89
2023/04/25 00:33:39;;;;;;;25.63;18.02;;;;;;;16.82;52.42;92673.88;4923710;29;20296;-90
2023/04/25 00:36:05;;;;;;;29.55;19.15;;;;;;;16.82;51.68;92668.41;4928103;29;20048;-88
2023/04/25 00:38:30;;;;;;;28.73;18.65;;;;;;;16.80;52.14;92666.19;4920342;29;20036;-89
2023/04/25 00:40:57;;;;;;;29.60;19.35;;;;;;;16.79;51.81;92660.00;4904828;29;20048;-89
2023/04/25 00:43:24;;;;;;;23.70;17.80;;;;;;;16.84;51.81;92660.44;4915403;29;20593;-89
2023/04/25 00:45:50;;;;;;;31.25;18.17;;;;;;;16.82;52.13;92660.22;4925804;29;20059;-89
2023/04/25 00:48:15;;;;;;;26.55;16.92;;;;;;;16.82;51.86;92662.97;4933050;29;20451;-89
2023/04/25 00:50:41;;;;;;;27.33;18.98;;;;;;;16.79;52.15;92657.28;4925373;29;20040;-90
2023/04/25 00:53:07;;;;;;;26.20;17.35;;;;;;;16.82;52.29;92663.69;4913833;29;20044;-89
2023/04/25 00:55:34;;;;;;;26.27;17.15;;;;;;;16.80;51.84;92660.75;4920489;29;20054;-89
2023/04/25 00:58:00;;;;;;;28.88;18.10;;;;;;;16.79;51.84;92660.00;4899295;29;20052;-89
2023/04/25 01:00:25;;;;;;;24.35;16.35;;;;;;;16.85;51.72;92665.38;4915660;29;20106;-89
2023/04/25 01:02:51;;;;;;;29.23;17.80;;;;;;;16.80;52.10;92668.94;4933115;29;20040;-89
2023/04/25 01:05:18;;;;;;;28.92;17.60;;;;;;;16.79;52.24;92659.25;4927834;29;20047;-89
2023/04/25 01:07:44;;;;;;;27.13;16.73;;;;;;;16.82;51.99;92660.97;4930022;29;20044;-89
2023/04/25 01:10:10;;;;;;;25.15;16.73;;;;;;;16.83;51.91;92659.72;4897876;29;20063;-89
2023/04/25 01:12:36;;;;;;;28.27;16.13;;;;;;;16.84;51.38;92655.72;4914395;29;20484;-89
2023/04/25 01:15:01;;;;;;;29.63;17.67;;;;;;;16.74;52.28;92658.09;4914450;29;20043;-89
2023/04/25 01:17:27;;;;;;;23.65;17.23;;;;;;;16.78;51.89;92653.06;4903865;29;20091;-89
2023/04/25 01:19:52;;;;;;;22.45;15.68;;;;;;;16.79;51.61;92651.06;4914934;29;20044;-90
2023/04/25 01:22:18;;;;;;;24.15;15.45;;;;;;;16.79;52.15;92656.53;4915824;29;20392;-88
2023/04/25 01:24:44;;;;;;;20.27;14.10;;;;;;;16.81;51.61;92656.75;4947949;29;20048;-89
2023/04/25 01:27:09;;;;;;;22.30;14.93;;;;;;;16.85;51.65;92659.94;4929508;29;20067;-89
2023/04/25 01:29:35;;;;;;;21.50;15.38;;;;;;;16.81;51.64;92648.56;4948439;28;20467;-89
2023/04/25 01:32:01;;;;;;;23.48;15.23;;;;;;;16.82;51.56;92650.03;4929714;29;20050;-89
2023/04/25 01:34:26;;;;;;;20.80;14.60;;;;;;;16.83;51.69;92656.97;4912904;29;20040;-89
2023/04/25 01:36:52;;;;;;;20.92;15.23;;;;;;;16.75;51.92;92659.56;4913332;29;20419;-89
2023/04/25 01:39:18;;;;;;;22.02;15.07;;;;;;;16.81;51.80;92645.09;4928523;29;20198;-89
2023/04/25 01:41:43;;;;;;;22.77;15.10;;;;;;;16.77;51.82;92648.13;4927248;29;20075;-89
2023/04/25 01:44:09;;;;;;;23.33;14.30;;;;;;;16.80;51.26;92644.38;4912556;29;20079;-88
2023/04/25 01:46:34;;;;;;;24.58;15.75;;;;;;;16.73;52.08;92639.50;4910046;29;20471;-89
2023/04/25 01:49:00;;;;;;;23.50;14.82;;;;;;;16.73;51.98;92634.78;4910153;29;20500;-89
2023/04/25 01:51:25;;;;;;;23.58;14.25;;;;;;;16.80;51.33;92633.44;4906897;29;20066;-89
2023/04/25 01:53:51;;;;;;;21.90;14.07;;;;;;;16.80;51.43;92636.19;4913090;29;20050;-88
2023/04/25 01:56:17;;;;;;;22.13;14.25;;;;;;;16.78;51.31;92633.22;4927817;29;20396;-89
2023/04/25 01:58:43;;;;;;;19.77;14.25;;;;;;;16.77;51.78;92635.22;4913090;29;20100;-89
2023/04/25 02:01:08;;;;;;;19.25;13.45;;;;;;;16.81;51.12;92631.47;4921823;29;20055;-89
2023/04/25 02:03:34;;;;;;;18.00;13.00;;;;;;;16.81;51.39;92631.47;4932902;29;20538;-89
2023/04/25 02:06:00;;;;;;;19.02;13.57;;;;;;;16.81;51.05;92634.91;4931075;29;20522;-89
2023/04/25 02:08:26;;;;;;;18.38;13.23;;;;;;;16.77;51.48;92631.75;4909460;29;20039;-89
2023/04/25 02:10:51;;;;;;;21.27;14.68;;;;;;;16.75;51.43;92631.53;4931115;29;20052;-89
2023/04/25 02:13:17;;;;;;;18.60;13.43;;;;;;;16.74;51.21;92628.06;4912203;28;20055;-89
2023/04/25 02:15:42;;;;;;;20.60;13.93;;;;;;;16.77;51.56;92629.03;4944374;28;20048;-89
2023/04/25 02:18:10;;;;;;;20.20;13.07;;;;;;;16.76;51.71;92614.63;4927211;28;20040;-88
2023/04/25 02:20:36;;;;;;;19.17;13.23;;;;;;;16.78;51.41;92623.03;4941675;28;20128;-88
2023/04/25 02:23:02;;;;;;;21.08;13.52;;;;;;;16.79;51.36;92618.31;4943584;28;20048;-89
2023/04/25 02:25:27;;;;;;;18.83;13.15;;;;;;;16.73;51.58;92618.41;4914462;29;20399;-89
2023/04/25 02:27:53;;;;;;;18.45;12.52;;;;;;;16.69;51.89;92615.22;4947258;28;20524;-89
2023/04/25 02:30:19;;;;;;;18.42;11.90;;;;;;;16.74;51.68;92602.75;4946018;28;20067;-89
2023/04/25 02:32:44;;;;;;;17.73;12.23;;;;;;;16.76;51.08;92594.78;4923548;29;20044;-89
2023/04/25 02:35:10;;;;;;;16.20;11.68;;;;;;;16.78;51.14;92600.47;4911457;29;20040;-89
2023/04/25 02:37:36;;;;;;;19.33;12.07;;;;;;;16.73;50.80;92596.56;4921352;29;20048;-89
2023/04/25 02:40:02;;;;;;;15.40;12.25;;;;;;;16.74;51.06;92605.50;4911847;29;20032;-89
2023/04/25 02:42:28;;;;;;;17.38;11.90;;;;;;;16.71;51.45;92598.34;4922620;29;20040;-89
2023/04/25 02:44:54;;;;;;;15.43;11.43;;;;;;;16.72;51.21;92591.63;4912328;29;20080;-89
2023/04/25 02:47:19;;;;;;;17.48;12.18;;;;;;;16.71;50.87;92590.88;4922312;29;20499;-89
2023/04/25 02:49:45;;;;;;;18.25;11.85;;;;;;;16.73;50.85;92593.09;4915406;29;20497;-88
2023/04/25 02:52:11;;;;;;;16.33;11.65;;;;;;;16.74;51.25;92598.03;4922927;29;20134;-89
2023/04/25 02:54:36;;;;;;;17.25;11.45;;;;;;;16.72;51.19;92605.28;4911711;29;20152;-89
2023/04/25 02:57:02;;;;;;;19.23;12.90;;;;;;;16.70;51.71;92599.59;4912264;29;20052;-89
2023/04/25 02:59:28;;;;;;;17.08;11.80;;;;;;;16.73;51.07;92590.38;4911500;29;20384;-89
2023/04/25 03:01:53;;;;;;;18.52;11.82;;;;;;;16.68;51.61;92591.94;4918549;29;20567;-88
2023/04/25 03:04:19;;;;;;;17.08;12.23;;;;;;;16.68;51.48;92594.66;4946505;28;20044;-89
2023/04/25 03:06:44;;;;;;;18.17;12.05;;;;;;;16.65;51.65;92593.00;4931662;29;20040;-89
2023/04/25 03:09:10;;;;;;;15.77;10.80;;;;;;;16.72;51.72;92583.44;4921410;29;20142;-89
2023/04/25 03:11:36;;;;;;;17.85;11.73;;;;;;;16.72;51.12;92584.19;4921148;29;20050;-89
2023/04/25 03:14:01;;;;;;;15.60;11.32;;;;;;;16.73;51.11;92587.66;4931435;29;20036;-89
2023/04/25 03:16:27;;;;;;;16.88;11.15;;;;;;;16.74;50.92;92583.66;4930831;29;20052;-89
2023/04/25 03:18:52;;;;;;;18.02;11.70;;;;;;;16.70;51.50;92575.03;4946503;28;20036;-88
2023/04/25 03:21:18;;;;;;;16.33;11.70;;;;;;;16.72;51.12;92573.25;4922580;29;20051;-89
2023/04/25 03:23:43;;;;;;;15.20;10.38;;;;;;;16.68;51.86;92570.09;4945957;28;20531;-88
2023/04/25 03:26:08;;;;;;;18.25;11.65;;;;;;;16.67;51.39;92565.88;4931623;29;20040;-89
2023/04/25 03:28:34;;;;;;;17.33;11.05;;;;;;;16.70;51.37;92562.13;4946696;28;20048;-89
2023/04/25 03:30:59;;;;;;;17.23;11.35;;;;;;;16.63;51.60;92561.97;4925556;29;20048;-88
2023/04/25 03:33:25;;;;;;;14.70;9.85;;;;;;;16.71;50.50;92565.59;4890035;29;20799;-89
2023/04/25 03:35:51;;;;;;;17.67;10.15;;;;;;;16.63;50.24;92565.47;4897714;29;20394;-88
2023/04/25 03:38:17;;;;;;;69.90;30.77;;;;;;;16.70;51.39;92562.13;4891670;29;20043;-87
2023/04/25 03:40:42;;;;;;;17.05;11.90;;;;;;;16.58;51.55;92560.81;4882080;29;20051;-88
2023/04/25 03:43:08;;;;;;;36.47;24.80;;;;;;;16.58;52.28;92558.09;4915082;29;20041;-89
2023/04/25 03:45:33;;;;;;;22.52;15.32;;;;;;;16.57;52.10;92558.59;4913413;29;20048;-86
2023/04/25 03:47:58;;;;;;;30.60;15.55;;;;;;;16.73;51.45;92563.09;4913662;29;20043;-88
2023/04/25 03:50:24;;;;;;;31.00;17.33;;;;;;;16.71;51.52;92563.59;4891409;29;20048;-87
2023/04/25 03:52:49;;;;;;;21.30;13.50;;;;;;;16.65;51.40;92560.25;4895390;29;20463;-87
2023/04/25 03:55:15;;;;;;;24.27;13.13;;;;;;;16.69;51.23;92565.38;4906040;29;20040;-87
2023/04/25 03:57:43;;;;;;;33.55;14.95;;;;;;;16.75;50.72;92566.03;4896124;29;20044;-86
2023/04/25 04:00:09;;;;;;;32.75;14.75;;;;;;;16.63;51.80;92570.16;4910043;29;20052;-86
2023/04/25 04:02:36;;;;;;;158.57;68.57;;;;;;;16.53;48.00;92563.63;4909058;29;20091;-87
2023/04/25 04:05:02;;;;;;;177.95;67.28;;;;;;;16.46;46.52;92564.94;4936072;28;20292;-86
2023/04/25 04:07:28;;;;;;;99.07;42.72;;;;;;;16.35;44.52;92565.13;4933286;29;20079;-86
2023/04/25 04:09:53;;;;;;;123.85;42.53;;;;;;;16.24;44.37;92570.75;4903175;29;20760;-88
2023/04/25 04:12:18;;;;;;;108.53;35.40;;;;;;;16.18;43.94;92579.00;4894677;29;20048;-87
2023/04/25 04:14:44;;;;;;;82.85;29.05;;;;;;;16.16;42.97;92578.03;4879895;29;20043;-89
2023/04/25 04:17:10;;;;;;;81.45;30.23;;;;;;;16.05;43.01;92585.09;4890084;29;20044;-88
2023/04/25 04:19:36;;;;;;;90.50;28.52;;;;;;;16.01;42.84;92581.19;4899716;29;20037;-87
2023/04/25 04:22:02;;;;;;;58.78;22.92;;;;;;;16.00;42.79;92577.00;4897847;29;20051;-88
2023/04/25 04:24:27;;;;;;;93.22;29.23;;;;;;;16.00;42.83;92563.38;4896389;29;20428;-88
2023/04/25 04:26:53;;;;;;;112.32;28.30;;;;;;;15.96;42.36;92569.13;4878401;29;20044;-88
2023/04/25 04:29:20;;;;;;;102.95;26.70;;;;;;;15.91;42.39;92559.00;4899982;29;20040;-86
2023/04/25 04:31:50;;;;;;;101.57;28.30;;;;;;;15.87;42.51;92568.72;4920955;29;20044;-87
2023/04/25 04:34:18;;;;;;;74.25;28.50;;;;;;;15.88;42.21;92573.66;4899867;29;20129;-87
2023/04/25 04:36:45;;;;;;;88.68;36.35;;;;;;;15.86;42.17;92562.53;4901511;29;20454;-87
2023/04/25 04:39:11;;;;;;;100.97;24.55;;;;;;;15.75;41.96;92559.97;4915791;29;20495;-85
2023/04/25 04:41:37;;;;;;;83.68;20.83;;;;;;;15.70;42.51;92571.66;4897398;29;20055;-91
2023/04/25 04:44:02;;;;;;;115.57;26.38;;;;;;;15.70;42.46;92571.66;4910596;29;20048;-86
2023/04/25 04:46:28;;;;;;;114.57;24.92;;;;;;;15.72;42.84;92569.16;4891233;29;20040;-86
2023/04/25 04:48:53;;;;;;;107.13;24.90;;;;;;;15.84;42.77;92575.94;4918691;29;20052;-87
2023/04/25 04:51:20;;;;;;;96.20;27.15;;;;;;;15.99;42.65;92580.97;4884091;29;20044;-87
2023/04/25 04:53:46;;;;;;;129.25;41.92;;;;;;;16.05;42.60;92578.91;4898471;29;20032;-87
2023/04/25 04:56:11;;;;;;;112.22;37.60;;;;;;;16.02;43.36;92575.22;4901851;28;20603;-87
2023/04/25 04:58:37;;;;;;;140.88;39.05;;;;;;;15.89;43.22;92569.69;4895335;29;20099;-86
2023/04/25 05:01:02;;;;;;;122.13;35.53;;;;;;;15.95;43.03;92575.06;4902193;29;20045;-88
2023/04/25 05:03:28;;;;;;;139.57;35.95;;;;;;;16.00;43.13;92574.28;4890127;29;20040;-88
2023/04/25 05:05:54;;;;;;;130.38;37.97;;;;;;;16.13;43.18;92577.06;4909648;29;20044;-86
2023/04/25 05:08:20;;;;;;;133.90;38.35;;;;;;;16.25;43.62;92575.66;4882069;29;20131;-88
2023/04/25 05:10:46;;;;;;;131.05;43.80;;;;;;;16.23;43.91;92578.19;4911768;29;20051;-86
2023/04/25 05:13:11;;;;;;;141.40;46.70;;;;;;;16.24;44.30;92585.09;4908579;29;20040;-87
2023/04/25 05:15:37;;;;;;;140.68;47.67;;;;;;;16.27;44.07;92578.59;4887386;29;20048;-86
2023/04/25 05:18:02;;;;;;;129.95;48.97;;;;;;;16.36;44.40;92582.97;4904612;29;20056;-87
2023/04/25 05:20:28;;;;;;;188.48;52.78;;;;;;;16.30;44.76;92585.75;4878670;29;20072;-87
2023/04/25 05:22:53;;;;;;;127.07;40.67;;;;;;;16.32;44.81;92582.50;4896387;29;20610;-88
2023/04/25 05:25:19;;;;;;;178.82;50.92;;;;;;;16.33;44.33;92583.97;4907211;29;20048;-87
2023/04/25 05:27:44;;;;;;;186.07;49.40;;;;;;;16.43;44.71;92576.91;4876988;29;20040;-89
2023/04/25 05:30:11;;;;;;;227.02;60.40;;;;;;;16.43;44.98;92574.19;4897561;29;20121;-89
2023/04/25 05:32:36;;;;;;;166.18;53.95;;;;;;;16.44;45.35;92570.94;4898132;29;20516;-87
2023/04/25 05:35:02;;;;;;;208.95;58.92;;;;;;;16.44;45.50;92560.03;4880452;29;20134;-89
2023/04/25 05:37:30;;;;;;;178.98;57.17;;;;;;;16.50;45.61;92557.19;4898306;29;20037;-88
2023/04/25 05:39:55;;;;;;;266.75;101.25;;;;;;;16.34;45.07;92548.00;4882130;29;20044;-88
2023/04/25 05:42:21;;;;;;;166.10;71.15;;;;;;;16.47;45.10;92560.97;4881450;29;20064;-88
2023/04/25 05:44:46;;;;;;;181.63;70.30;;;;;;;16.50;45.28;92561.91;4885646;29;20040;-87
2023/04/25 05:47:12;;;;;;;146.30;58.85;;;;;;;16.52;44.81;92564.88;4901745;28;20045;-88
2023/04/25 05:49:37;;;;;;;118.20;51.33;;;;;;;16.54;45.06;92565.81;4924786;29;20062;-89
2023/04/25 05:52:03;;;;;;;173.73;76.15;;;;;;;16.44;45.07;92553.84;4878360;29;20086;-89
2023/04/25 05:54:28;;;;;;;213.98;103.95;;;;;;;16.49;45.17;92558.44;4908588;29;20040;-89
2023/04/25 05:56:55;;;;;;;275.17;132.15;;;;;;;16.53;45.39;92569.06;4883388;29;20048;-91
2023/04/25 05:59:21;;;;;;;310.48;156.25;;;;;;;16.56;45.46;92573.50;4899179;29;20640;-89
2023/04/25 06:01:46;;;;;;;291.45;143.60;;;;;;;16.67;45.54;92581.56;4897659;29;20039;-89
2023/04/25 06:04:12;;;;;;;374.63;187.63;;;;;;;16.66;45.54;92574.63;4896303;29;20051;-89
2023/04/25 06:06:37;;;;;;;324.75;170.85;;;;;;;16.73;46.35;92582.91;4898093;29;20062;-88
2023/04/25 06:09:03;;;;;;;318.27;170.15;;;;;;;16.78;45.56;92581.38;4915627;29;20039;-87
2023/04/25 06:11:28;;;;;;;312.45;161.70;;;;;;;16.84;45.18;92570.38;4913787;29;20051;-87
2023/04/25 06:13:54;;;;;;;316.60;167.05;;;;;;;16.81;45.74;92563.22;4916668;29;20573;-90
2023/04/25 06:16:20;;;;;;;358.65;191.40;;;;;;;16.81;45.37;92571.41;4913020;29;20043;-89
2023/04/25 06:18:45;;;;;;;299.80;159.98;;;;;;;16.80;45.60;92570.66;4912822;29;20180;-89
2023/04/25 06:21:11;;;;;;;305.30;164.38;;;;;;;16.76;45.65;92572.97;4910112;29;20086;-90
2023/04/25 06:23:37;;;;;;;323.08;174.75;;;;;;;16.76;45.47;92570.97;4899110;29;20050;-90
2023/04/25 06:26:03;;;;;;;276.70;154.52;;;;;;;16.75;45.54;92569.50;4898381;29;20050;-91
2023/04/25 06:28:29;;;;;;;319.23;166.85;;;;;;;16.81;45.39;92574.88;4911759;29;20036;-90
2023/04/25 06:30:54;;;;;;;306.70;158.65;;;;;;;16.81;45.56;92565.94;4917451;29;20116;-90
2023/04/25 06:33:21;;;;;;;300.35;158.18;;;;;;;16.77;45.33;92569.72;4918870;29;20048;-90
2023/04/25 06:35:46;;;;;;;335.35;181.32;;;;;;;16.91;45.39;92564.28;4903938;29;20047;-90
2023/04/25 06:38:12;;;;;;;400.27;212.18;;;;;;;16.89;44.25;92559.34;4898078;29;20100;-91
2023/04/25 06:40:37;;;;;;;309.63;167.63;;;;;;;16.73;44.27;92555.63;4929881;29;20040;-92
2023/04/25 06:43:03;;;;;;;228.73;118.50;;;;;;;16.44;43.75;92557.31;4898959;29;20071;-90
2023/04/25 06:45:28;;;;;;;214.02;110.30;;;;;;;16.18;44.26;92551.72;4916555;29;20164;-90
2023/04/25 06:47:54;;;;;;;198.93;98.47;;;;;;;15.99;44.20;92554.47;4895411;29;20111;-90
2023/04/25 06:50:20;;;;;;;274.42;112.38;;;;;;;15.97;44.57;92548.03;4914936;29;20091;-90
2023/04/25 06:52:46;;;;;;;237.32;121.10;;;;;;;16.03;44.34;92535.78;4909827;29;20067;-90
2023/04/25 06:55:15;;;;;;;338.42;130.25;;;;;;;16.02;44.21;92545.22;4906969;29;20044;-92
2023/04/25 06:57:41;;;;;;;280.85;120.85;;;;;;;16.19;44.73;92542.28;4893106;29;20502;-93
2023/04/25 07:00:09;;;;;;;242.55;122.45;;;;;;;16.20;44.39;92532.84;4906525;29;20111;-91
2023/04/25 07:02:35;;;;;;;291.55;145.13;;;;;;;16.19;43.81;92539.56;4894236;29;20050;-94
2023/04/25 07:05:00;;;;;;;249.70;128.80;;;;;;;16.33;44.40;92530.19;4919137;29;20130;-89
2023/04/25 07:07:26;;;;;;;278.15;145.93;;;;;;;16.31;44.39;92524.50;4902640;29;20040;-92
2023/04/25 07:09:52;;;;;;;276.20;149.85;;;;;;;16.36;44.38;92529.16;4899944;29;20871;-90
2023/04/25 07:12:17;;;;;;;288.70;152.52;;;;;;;16.40;44.27;92528.84;4899029;29;20099;-90
2023/04/25 07:14:43;;;;;;;299.92;155.82;;;;;;;16.40;44.09;92537.03;4913325;29;20036;-90
2023/04/25 07:17:08;;;;;;;277.15;138.20;;;;;;;16.48;44.45;92526.22;4922254;29;20070;-91
2023/04/25 07:19:36;;;;;;;247.20;133.38;;;;;;;16.59;45.08;92529.53;4898130;29;20047;-91
2023/04/25 07:22:03;;;;;;;279.20;142.85;;;;;;;16.66;44.55;92526.25;4904292;29;20068;-91
2023/04/25 07:24:28;;;;;;;271.20;147.60;;;;;;;16.57;44.29;92518.41;4904806;29;20086;-90
2023/04/25 07:26:53;;;;;;;262.85;150.27;;;;;;;16.61;44.56;92515.38;4933281;29;20043;-91
2023/04/25 07:29:19;;;;;;;274.40;148.55;;;;;;;16.62;43.96;92527.78;4915068;29;20039;-89
2023/04/25 07:31:46;;;;;;;238.57;137.85;;;;;;;16.70;44.72;92513.00;4898750;29;20047;-90
2023/04/25 07:34:11;;;;;;;266.92;134.55;;;;;;;16.69;44.69;92522.44;4899769;29;20107;-89
2023/04/25 07:36:37;;;;;;;279.10;143.38;;;;;;;16.77;44.39;92511.66;4911432;29;20055;-88
2023/04/25 07:39:03;;;;;;;301.10;136.88;;;;;;;16.68;44.61;92520.97;4917107;29;20059;-90
2023/04/25 07:41:28;;;;;;;277.10;126.78;;;;;;;16.73;44.98;92514.69;4915733;29;20055;-90
2023/04/25 07:43:54;;;;;;;285.52;137.93;;;;;;;16.85;44.28;92517.25;4898977;29;20040;-89
2023/04/25 07:46:19;;;;;;;276.00;130.20;;;;;;;16.76;44.75;92519.13;4908542;29;20051;-89
2023/04/25 07:48:45;;;;;;;263.13;132.55;;;;;;;16.75;44.63;92516.91;4920318;29;20906;-87
2023/04/25 07:51:11;;;;;;;246.27;122.18;;;;;;;16.85;44.85;92528.91;4901308;29;20048;-90
2023/04/25 07:53:37;;;;;;;284.25;141.88;;;;;;;16.79;44.63;92528.25;4890188;29;20091;-89
2023/04/25 07:56:03;;;;;;;404.45;192.55;;;;;;;16.80;44.25;92532.47;4884528;29;20044;-88
2023/04/25 07:58:28;;;;;;;296.15;153.00;;;;;;;16.90;44.83;92533.50;4930762;29;20818;-90
2023/04/25 08:00:54;;;;;;;299.30;159.43;;;;;;;17.00;45.27;92531.13;4915575;29;20052;-88
2023/04/25 08:03:19;;;;;;;283.75;165.43;;;;;;;16.94;44.75;92530.47;4935301;28;20134;-89
2023/04/25 08:05:46;;;;;;;306.48;169.55;;;;;;;16.96;45.17;92538.88;4911735;29;20099;-88
2023/04/25 08:08:13;;;;;;;297.30;172.95;;;;;;;17.00;45.16;92528.41;4907860;29;20111;-90
2023/04/25 08:10:40;;;;;;;353.80;203.63;;;;;;;16.92;44.96;92533.72;4892052;29;20036;-90
2023/04/25 08:13:05;;;;;;;326.73;170.85;;;;;;;17.04;44.97;92528.84;4914826;29;20075;-89
2023/04/25 08:15:30;;;;;;;303.13;169.00;;;;;;;17.00;45.84;92526.41;4915666;29;20058;-89
2023/04/25 08:17:56;;;;;;;320.10;172.18;;;;;;;17.06;45.48;92526.31;4918254;29;20696;-89
2023/04/25 08:20:21;;;;;;;320.17;173.95;;;;;;;17.05;45.48;92533.03;4915646;29;20042;-90
2023/04/25 08:22:48;;;;;;;298.85;167.50;;;;;;;17.09;45.55;92533.47;4913788;29;20044;-92
2023/04/25 08:25:14;;;;;;;335.10;178.25;;;;;;;17.06;45.44;92527.06;4912161;29;20114;-89
2023/04/25 08:27:40;;;;;;;302.65;176.77;;;;;;;17.02;45.20;92534.06;4898417;29;20039;-90
2023/04/25 08:30:08;;;;;;;312.52;172.13;;;;;;;17.02;45.10;92532.09;4895490;29;20127;-89
2023/04/25 08:32:33;;;;;;;347.17;190.07;;;;;;;16.97;44.93;92527.44;4905239;29;20039;-89
2023/04/25 08:34:59;;;;;;;306.13;171.80;;;;;;;17.08;45.76;92521.81;4914813;29;20040;-89
2023/04/25 08:37:24;;;;;;;292.77;170.07;;;;;;;17.06;45.24;92534.50;4917881;29;20478;-88
2023/04/25 08:39:52;;;;;;;287.33;161.60;;;;;;;17.10;45.77;92524.03;4916664;29;20139;-87
2023/04/25 08:42:17;;;;;;;298.02;171.60;;;;;;;17.10;45.52;92524.72;4910846;29;20074;-87
2023/04/25 08:44:43;;;;;;;286.58;163.27;;;;;;;17.04;45.38;92534.28;4922590;29;20079;-89
2023/04/25 08:47:08;;;;;;;274.30;157.13;;;;;;;17.14;45.54;92532.63;4922676;29;20111;-89
2023/04/25 08:49:35;;;;;;;290.50;163.82;;;;;;;17.22;44.99;92535.47;4922790;29;20059;-90
2023/04/25 08:52:06;;;;;;;249.15;137.18;;;;;;;17.18;45.52;92562.34;4925748;29;20044;-91
2023/04/25 08:54:33;;;;;;;277.05;145.75;;;;;;;17.11;45.50;92563.69;4870125;29;20047;-91
2023/04/25 08:57:02;;;;;;;299.30;171.52;;;;;;;17.06;44.89;92554.34;4920021;29;20055;-89
2023/04/25 08:59:28;;;;;;;266.25;150.45;;;;;;;17.06;45.28;92543.44;4906226;29;20044;-88
2023/04/25 09:01:53;;;;;;;248.00;144.90;;;;;;;17.14;45.44;92547.00;4901016;29;20755;-88
2023/04/25 09:04:20;;;;;;;277.50;165.93;;;;;;;17.09;45.37;92544.38;4908602;29;20056;-89
2023/04/25 09:06:46;;;;;;;266.73;152.35;;;;;;;17.13;45.50;92553.72;4902754;29;20040;-87
2023/04/25 09:09:13;;;;;;;284.73;162.05;;;;;;;17.02;45.27;92547.72;4932219;28;20110;-89
2023/04/25 09:11:40;;;;;;;324.23;161.25;;;;;;;17.10;45.58;92554.75;4917954;29;20043;-90
2023/04/25 09:14:16;;;;;;;327.85;161.80;;;;;;;17.11;46.04;92542.59;4919056;29;20039;-91
2023/04/25 09:16:57;;;;;;;260.83;150.98;;;;;;;17.06;45.22;92548.16;4912982;29;20051;-91
2023/04/25 09:19:23;;;;;;;262.80;147.13;;;;;;;17.12;45.25;92546.06;4911164;29;20044;-91
2023/04/25 09:21:49;;;;;;;264.65;145.52;;;;;;;17.07;45.49;92552.38;4911110;29;20046;-89
2023/04/25 09:24:15;;;;;;;273.35;148.25;;;;;;;17.21;45.27;92551.13;4895940;29;20051;-89
2023/04/25 09:26:40;;;;;;;265.45;143.77;;;;;;;17.13;45.48;92540.06;4904449;29;20557;-91
2023/04/25 09:29:09;;;;;;;247.18;137.02;;;;;;;17.12;45.87;92541.31;4902215;29;20043;-91
2023/04/25 09:31:34;;;;;;;274.33;152.25;;;;;;;17.06;45.30;92546.16;4916023;29;20040;-88
2023/04/25 09:34:02;;;;;;;267.77;148.77;;;;;;;17.08;45.54;92540.19;4916472;29;20226;-88
2023/04/25 09:36:29;;;;;;;242.23;131.40;;;;;;;17.23;45.69;92540.41;4903078;29;20050;-90
2023/04/25 09:38:55;;;;;;;237.27;132.02;;;;;;;17.11;45.68;92539.13;4899152;29;20054;-92
2023/04/25 09:41:24;;;;;;;252.73;146.45;;;;;;;17.06;45.75;92540.72;4910414;29;20043;-91
2023/04/25 09:43:50;;;;;;;264.17;146.57;;;;;;;17.08;45.40;92540.91;4915884;29;20051;-90
2023/04/25 09:46:17;;;;;;;242.35;150.38;;;;;;;17.09;45.99;92534.22;4894824;29;20035;-88
2023/04/25 09:48:48;;;;;;;217.90;127.05;;;;;;;17.18;46.11;92533.03;4921716;29;20051;-89
2023/04/25 09:51:13;;;;;;;273.15;165.90;;;;;;;17.08;45.73;92535.47;4916496;29;20075;-87
2023/04/25 09:53:40;;;;;;;284.00;173.13;;;;;;;17.11;45.43;92541.84;4915507;29;20051;-90
2023/04/25 09:56:07;;;;;;;314.30;184.40;;;;;;;17.11;45.45;92542.59;4929681;29;20565;-87
2023/04/25 09:58:35;;;;;;;289.08;169.52;;;;;;;17.16;46.25;92537.56;4917337;29;20036;-89
2023/04/25 10:01:02;;;;;;;372.15;202.70;;;;;;;17.21;45.99;92528.53;4916357;29;20061;-89
2023/04/25 10:03:31;;;;;;;377.38;220.60;;;;;;;17.12;45.42;92535.13;4909204;29;20047;-88
2023/04/25 10:06:02;;;;;;;382.02;232.73;;;;;;;17.12;46.52;92537.84;4914063;29;20130;-89
2023/04/25 10:08:33;;;;;;;426.33;248.48;;;;;;;17.10;46.12;92534.94;4900646;29;20511;-91
2023/04/25 10:11:06;;;;;;;316.03;193.43;;;;;;;17.18;46.51;92540.50;4913123;29;20055;-91
2023/04/25 10:13:32;;;;;;;345.33;207.63;;;;;;;17.16;46.55;92548.47;4914502;29;20785;-89
2023/04/25 10:15:58;;;;;;;305.55;178.70;;;;;;;17.15;46.13;92545.00;4913533;29;20048;-88
2023/04/25 10:18:25;;;;;;;315.58;185.40;;;;;;;17.19;46.62;92556.38;4891507;29;20391;-88
2023/04/25 10:20:51;;;;;;;301.13;181.27;;;;;;;17.20;46.74;92551.63;4906378;29;20052;-89
2023/04/25 10:23:16;;;;;;;302.58;177.18;;;;;;;17.20;46.68;92551.63;4889015;29;20077;-90
2023/04/25 10:25:43;;;;;;;328.65;198.80;;;;;;;17.16;46.58;92553.94;4885963;29;20115;-90
2023/04/25 10:28:08;;;;;;;322.38;189.27;;;;;;;17.19;46.40;92548.16;4920062;29;20036;-87
2023/04/25 10:30:34;;;;;;;365.92;227.25;;;;;;;17.14;46.17;92549.72;4927953;29;20046;-90
2023/04/25 10:32:59;;;;;;;380.52;236.50;;;;;;;17.07;46.33;92553.09;4907698;29;20134;-87
2023/04/25 10:35:29;;;;;;;288.38;175.50;;;;;;;17.19;46.66;92539.97;4923689;29;20043;-87
2023/04/25 10:38:10;;;;;;;309.30;184.43;;;;;;;17.15;46.83;92542.28;4900017;29;20048;-90
2023/04/25 10:40:35;;;;;;;307.23;183.18;;;;;;;17.11;46.85;92545.31;4919134;29;20126;-90
2023/04/25 10:43:36;;;;;;;279.77;173.43;;;;;;;17.15;46.72;92545.00;4914072;29;20051;-89
2023/04/25 10:46:01;;;;;;;317.53;193.97;;;;;;;17.11;46.35;92553.50;4928326;29;20151;-92
2023/04/25 10:48:27;;;;;;;296.98;177.88;;;;;;;17.09;46.37;92549.84;4899528;29;20130;-89
2023/04/25 10:51:12;;;;;;;310.48;190.07;;;;;;;17.10;46.23;92545.88;4936495;29;20121;-87
2023/04/25 10:53:37;;;;;;;278.20;163.55;;;;;;;17.10;46.49;92543.84;4900169;29;20698;-88
2023/04/25 10:56:22;;;;;;;282.58;171.05;;;;;;;17.18;46.60;92556.88;4906487;29;20060;-92
2023/04/25 10:58:47;;;;;;;288.15;167.60;;;;;;;17.11;46.34;92556.25;4944088;28;20051;-90
2023/04/25 11:01:19;;;;;;;266.60;151.95;;;;;;;17.18;46.90;92565.06;4899666;29;20547;-90
2023/04/25 11:03:45;;;;;;;259.42;146.73;;;;;;;17.13;46.45;92563.91;4914027;29;20407;-90
2023/04/25 11:06:56;;;;;;;246.65;140.55;;;;;;;17.16;46.82;92571.06;4932547;28;20119;-89